sensor_id;sensor_type;location;lat;lon;timestamp;pressure;altitude;pressure_sealevel;temperature
69590;BMP180;56792;50.644;17.984;2023-03-14T00:00:26;97986.00;;;10.10
69590;BMP180;56792;50.644;17.984;2023-03-14T00:02:59;97990.40;;;10.10
69590;BMP180;56792;50.644;17.984;2023-03-14T00:05:31;97983.20;;;10.00
69590;BMP180;56792;50.644;17.984;2023-03-14T00:08:03;97987.00;;;10.00
69590;BMP180;56792;50.644;17.984;2023-03-14T00:10:37;97994.20;;;9.98
69590;BMP180;56792;50.644;17.984;2023-03-14T00:13:09;97996.80;;;9.90
69590;BMP180;56792;50.644;17.984;2023-03-14T00:15:42;97983.00;;;9.90
69590;BMP180;56792;50.644;17.984;2023-03-14T00:18:14;97976.00;;;9.82
69590;BMP180;56792;50.644;17.984;2023-03-14T00:20:46;97970.00;;;9.80
69590;BMP180;56792;50.644;17.984;2023-03-14T00:23:18;97964.80;;;9.80
69590;BMP180;56792;50.644;17.984;2023-03-14T00:25:50;97961.00;;;9.76
69590;BMP180;56792;50.644;17.984;2023-03-14T00:28:23;97968.60;;;9.78
69590;BMP180;56792;50.644;17.984;2023-03-14T00:30:55;97964.40;;;9.80
69590;BMP180;56792;50.644;17.984;2023-03-14T00:33:28;97930.80;;;9.80
69590;BMP180;56792;50.644;17.984;2023-03-14T00:36:03;97919.60;;;9.80
69590;BMP180;56792;50.644;17.984;2023-03-14T00:38:36;97927.80;;;9.80
69590;BMP180;56792;50.644;17.984;2023-03-14T00:41:12;97927.40;;;9.80
69590;BMP180;56792;50.644;17.984;2023-03-14T00:43:46;97923.60;;;9.80
69590;BMP180;56792;50.644;17.984;2023-03-14T00:46:19;97924.80;;;9.80
69590;BMP180;56792;50.644;17.984;2023-03-14T00:48:51;97926.60;;;9.88
69590;BMP180;56792;50.644;17.984;2023-03-14T00:51:23;97915.00;;;9.90
69590;BMP180;56792;50.644;17.984;2023-03-14T00:53:55;97911.80;;;10.00
69590;BMP180;56792;50.644;17.984;2023-03-14T00:56:27;97900.40;;;10.00
69590;BMP180;56792;50.644;17.984;2023-03-14T00:59:00;97899.20;;;10.00
69590;BMP180;56792;50.644;17.984;2023-03-14T01:01:32;97905.40;;;10.00
69590;BMP180;56792;50.644;17.984;2023-03-14T01:04:04;97911.40;;;10.04
69590;BMP180;56792;50.644;17.984;2023-03-14T01:06:37;97922.20;;;10.10
69590;BMP180;56792;50.644;17.984;2023-03-14T01:09:09;97927.60;;;10.10
69590;BMP180;56792;50.644;17.984;2023-03-14T01:11:42;97923.40;;;10.10
69590;BMP180;56792;50.644;17.984;2023-03-14T01:14:17;97918.40;;;10.10
69590;BMP180;56792;50.644;17.984;2023-03-14T01:16:49;97918.40;;;10.00
69590;BMP180;56792;50.644;17.984;2023-03-14T01:19:21;97917.20;;;10.00
69590;BMP180;56792;50.644;17.984;2023-03-14T01:21:53;97918.00;;;10.00
69590;BMP180;56792;50.644;17.984;2023-03-14T01:24:26;97929.20;;;10.00
69590;BMP180;56792;50.644;17.984;2023-03-14T01:26:58;97921.20;;;10.00
69590;BMP180;56792;50.644;17.984;2023-03-14T01:29:31;97933.40;;;9.92
69590;BMP180;56792;50.644;17.984;2023-03-14T01:32:05;97939.20;;;9.90
69590;BMP180;56792;50.644;17.984;2023-03-14T01:34:37;97946.60;;;9.90
69590;BMP180;56792;50.644;17.984;2023-03-14T01:37:09;97934.60;;;9.90
69590;BMP180;56792;50.644;17.984;2023-03-14T01:39:42;97934.60;;;9.86
69590;BMP180;56792;50.644;17.984;2023-03-14T01:42:15;97933.60;;;9.80
69590;BMP180;56792;50.644;17.984;2023-03-14T01:44:56;97918.60;;;9.80
69590;BMP180;56792;50.644;17.984;2023-03-14T01:47:28;97920.20;;;9.78
69590;BMP180;56792;50.644;17.984;2023-03-14T01:50:06;97910.00;;;9.70
69590;BMP180;56792;50.644;17.984;2023-03-14T01:52:46;97910.20;;;9.70
69590;BMP180;56792;50.644;17.984;2023-03-14T01:55:23;97906.40;;;9.70
69590;BMP180;56792;50.644;17.984;2023-03-14T01:58:00;97899.00;;;9.70
69590;BMP180;56792;50.644;17.984;2023-03-14T02:00:34;97893.40;;;9.70
69590;BMP180;56792;50.644;17.984;2023-03-14T02:03:14;97890.40;;;9.70
69590;BMP180;56792;50.644;17.984;2023-03-14T02:05:48;97888.60;;;9.68
69590;BMP180;56792;50.644;17.984;2023-03-14T02:08:25;97887.60;;;9.60
69590;BMP180;56792;50.644;17.984;2023-03-14T02:11:04;97898.00;;;9.60
69590;BMP180;56792;50.644;17.984;2023-03-14T02:13:59;97912.80;;;9.60
69590;BMP180;56792;50.644;17.984;2023-03-14T02:16:59;97947.80;;;9.60
69590;BMP180;56792;50.644;17.984;2023-03-14T02:19:46;98002.40;;;9.60
69590;BMP180;56792;50.644;17.984;2023-03-14T02:22:36;98012.40;;;9.60
69590;BMP180;56792;50.644;17.984;2023-03-14T02:25:20;97987.00;;;9.60
69590;BMP180;56792;50.644;17.984;2023-03-14T02:27:57;97966.20;;;9.60
69590;BMP180;56792;50.644;17.984;2023-03-14T02:30:31;97976.60;;;9.70
69590;BMP180;56792;50.644;17.984;2023-03-14T02:33:08;97970.80;;;9.70
69590;BMP180;56792;50.644;17.984;2023-03-14T02:35:45;97966.00;;;9.80
69590;BMP180;56792;50.644;17.984;2023-03-14T02:38:26;97958.40;;;9.80
69590;BMP180;56792;50.644;17.984;2023-03-14T02:40:59;97944.60;;;9.90
69590;BMP180;56792;50.644;17.984;2023-03-14T02:43:32;97941.60;;;9.90
69590;BMP180;56792;50.644;17.984;2023-03-14T02:46:09;97940.20;;;10.00
69590;BMP180;56792;50.644;17.984;2023-03-14T02:48:47;97926.40;;;10.10
69590;BMP180;56792;50.644;17.984;2023-03-14T02:51:21;97919.00;;;10.12
69590;BMP180;56792;50.644;17.984;2023-03-14T02:53:54;97928.60;;;10.20
69590;BMP180;56792;50.644;17.984;2023-03-14T02:56:27;97921.60;;;10.20
69590;BMP180;56792;50.644;17.984;2023-03-14T02:58:59;97915.80;;;10.24
69590;BMP180;56792;50.644;17.984;2023-03-14T03:01:41;97921.00;;;10.30
69590;BMP180;56792;50.644;17.984;2023-03-14T03:04:14;97914.80;;;10.30
69590;BMP180;56792;50.644;17.984;2023-03-14T03:06:49;97921.80;;;10.30
69590;BMP180;56792;50.644;17.984;2023-03-14T03:09:21;97927.00;;;10.30
69590;BMP180;56792;50.644;17.984;2023-03-14T03:11:55;97932.20;;;10.30
69590;BMP180;56792;50.644;17.984;2023-03-14T03:14:28;97940.20;;;10.30
69590;BMP180;56792;50.644;17.984;2023-03-14T03:17:03;97950.40;;;10.30
69590;BMP180;56792;50.644;17.984;2023-03-14T03:19:35;97951.20;;;10.38
69590;BMP180;56792;50.644;17.984;2023-03-14T03:22:07;97941.00;;;10.32
69590;BMP180;56792;50.644;17.984;2023-03-14T03:24:40;97942.20;;;10.30
69590;BMP180;56792;50.644;17.984;2023-03-14T03:27:12;97937.40;;;10.30
69590;BMP180;56792;50.644;17.984;2023-03-14T03:29:45;97926.60;;;10.30
69590;BMP180;56792;50.644;17.984;2023-03-14T03:32:18;97932.00;;;10.20
69590;BMP180;56792;50.644;17.984;2023-03-14T03:34:50;97936.60;;;10.20
69590;BMP180;56792;50.644;17.984;2023-03-14T03:37:22;97929.40;;;10.10
69590;BMP180;56792;50.644;17.984;2023-03-14T03:39:54;97933.60;;;10.00
69590;BMP180;56792;50.644;17.984;2023-03-14T03:42:29;97925.80;;;10.00
69590;BMP180;56792;50.644;17.984;2023-03-14T03:45:02;97923.80;;;10.00
69590;BMP180;56792;50.644;17.984;2023-03-14T03:47:35;97919.40;;;10.00
69590;BMP180;56792;50.644;17.984;2023-03-14T03:50:10;97917.80;;;10.00
69590;BMP180;56792;50.644;17.984;2023-03-14T03:52:42;97914.40;;;9.90
69590;BMP180;56792;50.644;17.984;2023-03-14T03:55:14;97897.20;;;9.90
69590;BMP180;56792;50.644;17.984;2023-03-14T03:57:47;97879.40;;;9.90
69590;BMP180;56792;50.644;17.984;2023-03-14T04:00:20;97882.40;;;9.80
69590;BMP180;56792;50.644;17.984;2023-03-14T04:02:52;97896.60;;;9.78
69590;BMP180;56792;50.644;17.984;2023-03-14T04:05:24;97897.20;;;9.70
69590;BMP180;56792;50.644;17.984;2023-03-14T04:08:07;97890.20;;;9.70
69590;BMP180;56792;50.644;17.984;2023-03-14T04:10:39;97876.40;;;9.60
69590;BMP180;56792;50.644;17.984;2023-03-14T04:13:19;97871.20;;;9.60
69590;BMP180;56792;50.644;17.984;2023-03-14T04:15:56;97862.80;;;9.60
69590;BMP180;56792;50.644;17.984;2023-03-14T04:18:32;97860.00;;;9.52
69590;BMP180;56792;50.644;17.984;2023-03-14T04:21:05;97855.20;;;9.60
69590;BMP180;56792;50.644;17.984;2023-03-14T04:23:51;97845.40;;;9.60
69590;BMP180;56792;50.644;17.984;2023-03-14T04:26:23;97847.80;;;9.70
69590;BMP180;56792;50.644;17.984;2023-03-14T04:28:56;97845.40;;;9.80
69590;BMP180;56792;50.644;17.984;2023-03-14T04:31:28;97838.20;;;9.90
69590;BMP180;56792;50.644;17.984;2023-03-14T04:34:00;97840.20;;;10.10
69590;BMP180;56792;50.644;17.984;2023-03-14T04:36:39;97848.40;;;10.20
69590;BMP180;56792;50.644;17.984;2023-03-14T04:39:17;97841.20;;;10.20
69590;BMP180;56792;50.644;17.984;2023-03-14T04:41:56;97839.40;;;10.20
69590;BMP180;56792;50.644;17.984;2023-03-14T04:44:29;97835.00;;;10.20
69590;BMP180;56792;50.644;17.984;2023-03-14T04:47:02;97825.20;;;10.20
69590;BMP180;56792;50.644;17.984;2023-03-14T04:49:35;97826.20;;;10.20
69590;BMP180;56792;50.644;17.984;2023-03-14T04:52:09;97830.20;;;10.18
69590;BMP180;56792;50.644;17.984;2023-03-14T04:54:41;97831.20;;;10.10
69590;BMP180;56792;50.644;17.984;2023-03-14T04:57:14;97825.80;;;10.10
69590;BMP180;56792;50.644;17.984;2023-03-14T04:59:47;97829.00;;;10.06
69590;BMP180;56792;50.644;17.984;2023-03-14T05:02:38;97819.80;;;10.00
69590;BMP180;56792;50.644;17.984;2023-03-14T05:05:27;97816.40;;;10.00
69590;BMP180;56792;50.644;17.984;2023-03-14T05:08:09;97807.20;;;9.96
69590;BMP180;56792;50.644;17.984;2023-03-14T05:10:42;97796.60;;;9.92
69590;BMP180;56792;50.644;17.984;2023-03-14T05:13:20;97794.20;;;9.90
69590;BMP180;56792;50.644;17.984;2023-03-14T05:16:16;97780.60;;;9.82
69590;BMP180;56792;50.644;17.984;2023-03-14T05:19:08;97773.60;;;9.80
69590;BMP180;56792;50.644;17.984;2023-03-14T05:22:00;97771.20;;;9.80
69590;BMP180;56792;50.644;17.984;2023-03-14T05:24:55;97777.00;;;9.80
69590;BMP180;56792;50.644;17.984;2023-03-14T05:27:57;97771.20;;;9.80
69590;BMP180;56792;50.644;17.984;2023-03-14T05:30:48;97756.20;;;9.80
69590;BMP180;56792;50.644;17.984;2023-03-14T05:33:53;97735.00;;;9.70
69590;BMP180;56792;50.644;17.984;2023-03-14T05:36:45;97721.60;;;9.70
69590;BMP180;56792;50.644;17.984;2023-03-14T05:39:37;97714.80;;;9.70
69590;BMP180;56792;50.644;17.984;2023-03-14T05:42:23;97693.60;;;9.72
69590;BMP180;56792;50.644;17.984;2023-03-14T05:45:14;97664.40;;;9.70
69590;BMP180;56792;50.644;17.984;2023-03-14T05:48:06;97639.00;;;9.70
69590;BMP180;56792;50.644;17.984;2023-03-14T05:51:02;97662.60;;;9.70
69590;BMP180;56792;50.644;17.984;2023-03-14T05:54:12;97669.00;;;9.70
69590;BMP180;56792;50.644;17.984;2023-03-14T05:57:03;97674.20;;;9.64
69590;BMP180;56792;50.644;17.984;2023-03-14T05:59:43;97668.00;;;9.66
69590;BMP180;56792;50.644;17.984;2023-03-14T06:02:29;97666.40;;;9.62
69590;BMP180;56792;50.644;17.984;2023-03-14T06:05:07;97663.20;;;9.60
69590;BMP180;56792;50.644;17.984;2023-03-14T06:07:40;97668.00;;;9.60
69590;BMP180;56792;50.644;17.984;2023-03-14T06:10:13;97669.60;;;9.60
69590;BMP180;56792;50.644;17.984;2023-03-14T06:12:46;97676.40;;;9.70
69590;BMP180;56792;50.644;17.984;2023-03-14T06:15:19;97665.20;;;9.70
69590;BMP180;56792;50.644;17.984;2023-03-14T06:21:53;97679.40;;;9.80
69590;BMP180;56792;50.644;17.984;2023-03-14T06:24:28;97663.80;;;9.80
69590;BMP180;56792;50.644;17.984;2023-03-14T06:27:01;97662.60;;;9.80
69590;BMP180;56792;50.644;17.984;2023-03-14T06:29:34;97649.60;;;9.80
69590;BMP180;56792;50.644;17.984;2023-03-14T06:32:07;97629.80;;;9.80
69590;BMP180;56792;50.644;17.984;2023-03-14T06:34:41;97599.00;;;9.80
69590;BMP180;56792;50.644;17.984;2023-03-14T06:37:14;97611.80;;;9.80
69590;BMP180;56792;50.644;17.984;2023-03-14T06:39:49;97631.40;;;9.80
69590;BMP180;56792;50.644;17.984;2023-03-14T06:42:45;97626.00;;;9.80
69590;BMP180;56792;50.644;17.984;2023-03-14T06:45:18;97641.60;;;9.80
69590;BMP180;56792;50.644;17.984;2023-03-14T06:47:51;97661.40;;;9.80
69590;BMP180;56792;50.644;17.984;2023-03-14T06:50:25;97663.80;;;9.80
69590;BMP180;56792;50.644;17.984;2023-03-14T06:52:58;97697.80;;;9.80
69590;BMP180;56792;50.644;17.984;2023-03-14T06:55:31;97728.20;;;9.80
69590;BMP180;56792;50.644;17.984;2023-03-14T06:58:05;97727.20;;;9.80
69590;BMP180;56792;50.644;17.984;2023-03-14T07:00:43;97720.80;;;9.84
69590;BMP180;56792;50.644;17.984;2023-03-14T07:03:18;97702.20;;;9.86
69590;BMP180;56792;50.644;17.984;2023-03-14T07:05:54;97722.40;;;9.80
69590;BMP180;56792;50.644;17.984;2023-03-14T07:08:27;97738.00;;;9.80
69590;BMP180;56792;50.644;17.984;2023-03-14T07:11:01;97728.40;;;9.82
69590;BMP180;56792;50.644;17.984;2023-03-14T07:13:34;97733.60;;;9.80
69590;BMP180;56792;50.644;17.984;2023-03-14T07:16:10;97746.60;;;9.80
69590;BMP180;56792;50.644;17.984;2023-03-14T07:18:44;97754.60;;;9.80
69590;BMP180;56792;50.644;17.984;2023-03-14T07:21:17;97762.60;;;9.80
69590;BMP180;56792;50.644;17.984;2023-03-14T07:23:50;97758.80;;;9.74
69590;BMP180;56792;50.644;17.984;2023-03-14T07:26:23;97757.20;;;9.70
69590;BMP180;56792;50.644;17.984;2023-03-14T07:28:56;97771.00;;;9.70
69590;BMP180;56792;50.644;17.984;2023-03-14T07:31:29;97767.80;;;9.70
69590;BMP180;56792;50.644;17.984;2023-03-14T07:34:03;97757.20;;;9.76
69590;BMP180;56792;50.644;17.984;2023-03-14T07:36:40;97760.40;;;9.80
69590;BMP180;56792;50.644;17.984;2023-03-14T07:39:13;97770.80;;;9.80
69590;BMP180;56792;50.644;17.984;2023-03-14T07:42:18;97780.80;;;9.80
69590;BMP180;56792;50.644;17.984;2023-03-14T07:45:00;97770.20;;;9.80
69590;BMP180;56792;50.644;17.984;2023-03-14T07:47:33;97745.60;;;9.90
69590;BMP180;56792;50.644;17.984;2023-03-14T07:50:07;97752.40;;;9.90
69590;BMP180;56792;50.644;17.984;2023-03-14T07:52:39;97761.20;;;10.00
69590;BMP180;56792;50.644;17.984;2023-03-14T07:55:12;97757.20;;;10.00
69590;BMP180;56792;50.644;17.984;2023-03-14T07:57:45;97756.40;;;10.10
69590;BMP180;56792;50.644;17.984;2023-03-14T08:00:19;97751.60;;;10.10
69590;BMP180;56792;50.644;17.984;2023-03-14T08:02:52;97752.80;;;10.18
69590;BMP180;56792;50.644;17.984;2023-03-14T08:05:26;97758.20;;;10.20
69590;BMP180;56792;50.644;17.984;2023-03-14T08:07:58;97764.40;;;10.28
69590;BMP180;56792;50.644;17.984;2023-03-14T08:10:31;97769.00;;;10.30
69590;BMP180;56792;50.644;17.984;2023-03-14T08:13:03;97772.80;;;10.40
69590;BMP180;56792;50.644;17.984;2023-03-14T08:15:36;97780.00;;;10.40
69590;BMP180;56792;50.644;17.984;2023-03-14T08:18:09;97783.60;;;10.40
69590;BMP180;56792;50.644;17.984;2023-03-14T08:20:41;97789.40;;;10.46
69590;BMP180;56792;50.644;17.984;2023-03-14T08:23:13;97788.00;;;10.42
69590;BMP180;56792;50.644;17.984;2023-03-14T08:25:45;97789.60;;;10.40
69590;BMP180;56792;50.644;17.984;2023-03-14T08:28:20;97803.00;;;10.40
69590;BMP180;56792;50.644;17.984;2023-03-14T08:30:56;97814.40;;;10.40
69590;BMP180;56792;50.644;17.984;2023-03-14T08:33:29;97825.40;;;10.40
69590;BMP180;56792;50.644;17.984;2023-03-14T08:36:03;97825.40;;;10.40
69590;BMP180;56792;50.644;17.984;2023-03-14T08:38:35;97813.40;;;10.30
69590;BMP180;56792;50.644;17.984;2023-03-14T08:41:08;97809.00;;;10.30
69590;BMP180;56792;50.644;17.984;2023-03-14T08:43:40;97804.80;;;10.30
69590;BMP180;56792;50.644;17.984;2023-03-14T08:46:13;97807.80;;;10.30
69590;BMP180;56792;50.644;17.984;2023-03-14T08:48:45;97805.60;;;10.22
69590;BMP180;56792;50.644;17.984;2023-03-14T08:51:18;97806.80;;;10.20
69590;BMP180;56792;50.644;17.984;2023-03-14T08:53:50;97792.60;;;10.20
69590;BMP180;56792;50.644;17.984;2023-03-14T08:56:22;97775.00;;;10.20
69590;BMP180;56792;50.644;17.984;2023-03-14T08:58:55;97764.40;;;10.20
69590;BMP180;56792;50.644;17.984;2023-03-14T09:01:27;97759.20;;;10.30
69590;BMP180;56792;50.644;17.984;2023-03-14T09:04:00;97760.20;;;10.30
69590;BMP180;56792;50.644;17.984;2023-03-14T09:06:38;97768.00;;;10.30
69590;BMP180;56792;50.644;17.984;2023-03-14T09:09:11;97774.40;;;10.30
69590;BMP180;56792;50.644;17.984;2023-03-14T09:11:44;97783.60;;;10.40
69590;BMP180;56792;50.644;17.984;2023-03-14T09:14:18;97789.00;;;10.40
69590;BMP180;56792;50.644;17.984;2023-03-14T09:16:52;97799.00;;;10.40
69590;BMP180;56792;50.644;17.984;2023-03-14T09:19:25;97799.80;;;10.48
69590;BMP180;56792;50.644;17.984;2023-03-14T09:21:58;97811.60;;;10.48
69590;BMP180;56792;50.644;17.984;2023-03-14T09:24:31;97815.60;;;10.40
69590;BMP180;56792;50.644;17.984;2023-03-14T09:27:04;97828.60;;;10.40
69590;BMP180;56792;50.644;17.984;2023-03-14T09:29:38;97838.60;;;10.40
69590;BMP180;56792;50.644;17.984;2023-03-14T09:32:12;97837.20;;;10.36
69590;BMP180;56792;50.644;17.984;2023-03-14T09:34:45;97835.20;;;10.32
69590;BMP180;56792;50.644;17.984;2023-03-14T09:37:18;97838.80;;;10.30
69590;BMP180;56792;50.644;17.984;2023-03-14T09:39:50;97826.00;;;10.30
69590;BMP180;56792;50.644;17.984;2023-03-14T09:42:26;97822.80;;;10.32
69590;BMP180;56792;50.644;17.984;2023-03-14T09:45:02;97836.20;;;10.30
69590;BMP180;56792;50.644;17.984;2023-03-14T09:47:37;97829.60;;;10.30
69590;BMP180;56792;50.644;17.984;2023-03-14T09:50:16;97817.00;;;10.30
69590;BMP180;56792;50.644;17.984;2023-03-14T09:52:53;97805.80;;;10.30
69590;BMP180;56792;50.644;17.984;2023-03-14T09:55:28;97812.20;;;10.20
69590;BMP180;56792;50.644;17.984;2023-03-14T09:58:08;97808.40;;;10.20
69590;BMP180;56792;50.644;17.984;2023-03-14T10:00:42;97801.00;;;10.20
69590;BMP180;56792;50.644;17.984;2023-03-14T10:03:31;97812.60;;;10.20
69590;BMP180;56792;50.644;17.984;2023-03-14T10:06:12;97816.40;;;10.20
69590;BMP180;56792;50.644;17.984;2023-03-14T10:08:46;97813.20;;;10.20
69590;BMP180;56792;50.644;17.984;2023-03-14T10:11:20;97811.20;;;10.14
69590;BMP180;56792;50.644;17.984;2023-03-14T10:14:07;97817.40;;;10.10
69590;BMP180;56792;50.644;17.984;2023-03-14T10:16:42;97840.60;;;10.12
69590;BMP180;56792;50.644;17.984;2023-03-14T10:19:16;97850.20;;;10.12
69590;BMP180;56792;50.644;17.984;2023-03-14T10:21:54;97856.60;;;10.20
69590;BMP180;56792;50.644;17.984;2023-03-14T10:24:33;97855.80;;;10.20
69590;BMP180;56792;50.644;17.984;2023-03-14T10:27:18;97861.20;;;10.20
69590;BMP180;56792;50.644;17.984;2023-03-14T10:29:57;97864.60;;;10.10
69590;BMP180;56792;50.644;17.984;2023-03-14T10:32:37;97867.80;;;10.10
69590;BMP180;56792;50.644;17.984;2023-03-14T10:35:22;97873.40;;;10.00
69590;BMP180;56792;50.644;17.984;2023-03-14T10:37:58;97883.20;;;9.98
69590;BMP180;56792;50.644;17.984;2023-03-14T10:40:38;97887.80;;;9.90
69590;BMP180;56792;50.644;17.984;2023-03-14T10:43:19;97881.80;;;9.88
69590;BMP180;56792;50.644;17.984;2023-03-14T10:45:58;97880.20;;;9.80
69590;BMP180;56792;50.644;17.984;2023-03-14T10:48:36;97887.80;;;9.80
69590;BMP180;56792;50.644;17.984;2023-03-14T10:51:17;97879.60;;;9.70
69590;BMP180;56792;50.644;17.984;2023-03-14T10:53:57;97880.20;;;9.60
69590;BMP180;56792;50.644;17.984;2023-03-14T10:56:36;97881.40;;;9.60
69590;BMP180;56792;50.644;17.984;2023-03-14T10:59:14;97887.00;;;9.50
69590;BMP180;56792;50.644;17.984;2023-03-14T11:01:55;97872.80;;;9.50
69590;BMP180;56792;50.644;17.984;2023-03-14T11:04:57;97884.40;;;9.40
69590;BMP180;56792;50.644;17.984;2023-03-14T11:07:40;97883.00;;;9.40
69590;BMP180;56792;50.644;17.984;2023-03-14T11:10:22;97882.80;;;9.36
69590;BMP180;56792;50.644;17.984;2023-03-14T11:13:15;97888.20;;;9.30
69590;BMP180;56792;50.644;17.984;2023-03-14T11:16:01;97881.00;;;9.30
69590;BMP180;56792;50.644;17.984;2023-03-14T11:19:29;97869.80;;;9.26
69590;BMP180;56792;50.644;17.984;2023-03-14T11:22:11;97861.60;;;9.20
69590;BMP180;56792;50.644;17.984;2023-03-14T11:25:02;97854.40;;;9.20
69590;BMP180;56792;50.644;17.984;2023-03-14T11:27:45;97859.80;;;9.20
69590;BMP180;56792;50.644;17.984;2023-03-14T11:30:28;97860.40;;;9.10
69590;BMP180;56792;50.644;17.984;2023-03-14T11:33:13;97862.80;;;9.10
69590;BMP180;56792;50.644;17.984;2023-03-14T11:35:52;97854.00;;;9.10
69590;BMP180;56792;50.644;17.984;2023-03-14T11:38:37;97854.00;;;9.10
69590;BMP180;56792;50.644;17.984;2023-03-14T11:41:22;97850.40;;;9.10
69590;BMP180;56792;50.644;17.984;2023-03-14T11:43:59;97843.60;;;9.10
69590;BMP180;56792;50.644;17.984;2023-03-14T11:46:34;97835.00;;;9.10
69590;BMP180;56792;50.644;17.984;2023-03-14T11:49:16;97824.20;;;9.10
69590;BMP180;56792;50.644;17.984;2023-03-14T11:51:57;97823.60;;;9.10
69590;BMP180;56792;50.644;17.984;2023-03-14T11:54:42;97813.60;;;9.14
69590;BMP180;56792;50.644;17.984;2023-03-14T11:57:19;97815.00;;;9.14
69590;BMP180;56792;50.644;17.984;2023-03-14T11:59:58;97810.00;;;9.16
69590;BMP180;56792;50.644;17.984;2023-03-14T12:02:43;97815.80;;;9.20
69590;BMP180;56792;50.644;17.984;2023-03-14T12:05:42;97822.00;;;9.20
69590;BMP180;56792;50.644;17.984;2023-03-14T12:08:44;97824.40;;;9.20
69590;BMP180;56792;50.644;17.984;2023-03-14T12:11:30;97824.20;;;9.20
69590;BMP180;56792;50.644;17.984;2023-03-14T12:14:15;97817.80;;;9.20
69590;BMP180;56792;50.644;17.984;2023-03-14T12:16:52;97813.60;;;9.20
69590;BMP180;56792;50.644;17.984;2023-03-14T12:19:37;97812.80;;;9.20
69590;BMP180;56792;50.644;17.984;2023-03-14T12:22:40;97813.80;;;9.20
69590;BMP180;56792;50.644;17.984;2023-03-14T12:25:21;97800.00;;;9.20
69590;BMP180;56792;50.644;17.984;2023-03-14T12:28:22;97794.60;;;9.20
69590;BMP180;56792;50.644;17.984;2023-03-14T12:31:46;97792.40;;;9.20
69590;BMP180;56792;50.644;17.984;2023-03-14T12:34:35;97807.60;;;9.20
69590;BMP180;56792;50.644;17.984;2023-03-14T12:37:27;97817.80;;;9.16
69590;BMP180;56792;50.644;17.984;2023-03-14T12:40:16;97808.80;;;9.10
69590;BMP180;56792;50.644;17.984;2023-03-14T12:43:03;97807.20;;;9.10
69590;BMP180;56792;50.644;17.984;2023-03-14T12:45:38;97808.20;;;9.10
69590;BMP180;56792;50.644;17.984;2023-03-14T12:48:20;97812.00;;;9.10
69590;BMP180;56792;50.644;17.984;2023-03-14T12:51:05;97808.80;;;9.10
69590;BMP180;56792;50.644;17.984;2023-03-14T12:57:27;97790.40;;;9.10
69590;BMP180;56792;50.644;17.984;2023-03-14T13:00:03;97782.40;;;9.10
69590;BMP180;56792;50.644;17.984;2023-03-14T13:02:49;97770.60;;;9.12
69590;BMP180;56792;50.644;17.984;2023-03-14T13:05:24;97781.00;;;9.20
69590;BMP180;56792;50.644;17.984;2023-03-14T13:08:11;97777.80;;;9.20
69590;BMP180;56792;50.644;17.984;2023-03-14T13:10:49;97781.20;;;9.20
69590;BMP180;56792;50.644;17.984;2023-03-14T13:13:26;97782.60;;;9.20
69590;BMP180;56792;50.644;17.984;2023-03-14T13:16:02;97771.40;;;9.30
69590;BMP180;56792;50.644;17.984;2023-03-14T13:18:44;97771.20;;;9.30
69590;BMP180;56792;50.644;17.984;2023-03-14T13:21:20;97767.20;;;9.30
69590;BMP180;56792;50.644;17.984;2023-03-14T13:24:05;97766.60;;;9.30
69590;BMP180;56792;50.644;17.984;2023-03-14T13:26:43;97771.00;;;9.40
69590;BMP180;56792;50.644;17.984;2023-03-14T13:29:23;97773.00;;;9.40
69590;BMP180;56792;50.644;17.984;2023-03-14T13:31:59;97770.40;;;9.40
69590;BMP180;56792;50.644;17.984;2023-03-14T13:34:33;97760.00;;;9.40
69590;BMP180;56792;50.644;17.984;2023-03-14T13:37:18;97746.40;;;9.40
69590;BMP180;56792;50.644;17.984;2023-03-14T13:39:57;97736.40;;;9.40
69590;BMP180;56792;50.644;17.984;2023-03-14T13:42:31;97742.40;;;9.40
69590;BMP180;56792;50.644;17.984;2023-03-14T13:45:05;97744.20;;;9.40
69590;BMP180;56792;50.644;17.984;2023-03-14T13:47:41;97752.80;;;9.40
69590;BMP180;56792;50.644;17.984;2023-03-14T13:50:21;97759.20;;;9.40
69590;BMP180;56792;50.644;17.984;2023-03-14T13:53:02;97758.40;;;9.40
69590;BMP180;56792;50.644;17.984;2023-03-14T13:55:36;97757.00;;;9.40
69590;BMP180;56792;50.644;17.984;2023-03-14T13:58:22;97745.20;;;9.40
69590;BMP180;56792;50.644;17.984;2023-03-14T14:01:16;97743.00;;;9.46
69590;BMP180;56792;50.644;17.984;2023-03-14T14:03:53;97751.20;;;9.48
69590;BMP180;56792;50.644;17.984;2023-03-14T14:06:34;97747.20;;;9.50
69590;BMP180;56792;50.644;17.984;2023-03-14T14:09:15;97748.60;;;9.50
69590;BMP180;56792;50.644;17.984;2023-03-14T14:11:53;97743.80;;;9.50
69590;BMP180;56792;50.644;17.984;2023-03-14T14:14:33;97737.80;;;9.50
69590;BMP180;56792;50.644;17.984;2023-03-14T14:17:24;97738.00;;;9.50
69590;BMP180;56792;50.644;17.984;2023-03-14T14:19:59;97733.00;;;9.58
69590;BMP180;56792;50.644;17.984;2023-03-14T14:22:33;97736.20;;;9.60
69590;BMP180;56792;50.644;17.984;2023-03-14T14:25:11;97743.80;;;9.60
69590;BMP180;56792;50.644;17.984;2023-03-14T14:27:49;97737.60;;;9.60
69590;BMP180;56792;50.644;17.984;2023-03-14T14:30:34;97741.00;;;9.60
69590;BMP180;56792;50.644;17.984;2023-03-14T14:33:22;97740.40;;;9.70
69590;BMP180;56792;50.644;17.984;2023-03-14T14:35:58;97739.60;;;9.70
69590;BMP180;56792;50.644;17.984;2023-03-14T14:38:31;97740.00;;;9.78
69590;BMP180;56792;50.644;17.984;2023-03-14T14:41:09;97738.60;;;9.80
69590;BMP180;56792;50.644;17.984;2023-03-14T14:43:44;97731.20;;;9.80
69590;BMP180;56792;50.644;17.984;2023-03-14T14:46:21;97725.80;;;9.80
69590;BMP180;56792;50.644;17.984;2023-03-14T14:49:01;97713.40;;;9.86
69590;BMP180;56792;50.644;17.984;2023-03-14T14:51:47;97711.60;;;9.90
69590;BMP180;56792;50.644;17.984;2023-03-14T14:54:35;97708.60;;;9.90
69590;BMP180;56792;50.644;17.984;2023-03-14T14:57:22;97702.40;;;10.00
69590;BMP180;56792;50.644;17.984;2023-03-14T15:00:03;97696.60;;;10.00
69590;BMP180;56792;50.644;17.984;2023-03-14T15:02:41;97707.20;;;10.20
69590;BMP180;56792;50.644;17.984;2023-03-14T15:05:20;97707.80;;;10.40
69590;BMP180;56792;50.644;17.984;2023-03-14T15:07:55;97696.20;;;10.60
69590;BMP180;56792;50.644;17.984;2023-03-14T15:10:28;97700.20;;;10.80
69590;BMP180;56792;50.644;17.984;2023-03-14T15:13:02;97707.20;;;10.90